Terminal Aerodrome Forecast
Issued by NWS Boise, ID

Home | Current Version | Previous Version | Text Only | Print | Product List | Glossary On
Versions: 1 2 3 4 5 6 7 8 9 10 11 12 13 14 15 16 17
000
FTUS45 KBOI 191748 AAA
TAFBOI
TAF AMD
KBOI 191748Z 1918/2018 13008KT P6SM FEW200
      TEMPO 1918/1922 12012G20KT
     FM200000 25005KT P6SM BKN200
     FM200300 31015G25KT P6SM SCT150
     FM200600 31011KT P6SM SKC=

USA.gov is the U.S. government's official web portal to all federal, state and local government web resources and services.